Time;durP1;ratioP1;P1;durP2;ratioP2;P2;SDS_P1;SDS_P2;PMS_P1;PMS_P2;Temp;Humidity;BMP_temperature;BMP_pressure;BME280_temperature;BME280_humidity;BME280_pressure;Samples;Min_cycle;Max_cycle;Signal;HPM_P1;HPM_P2
2023/12/29 00:02:25;;;;;;;17.35;3.30;;;;;;;13.32;79.62;100679.66;4992407;28;20605;-45
2023/12/29 00:04:50;;;;;;;15.52;3.05;;;;;;;13.11;80.23;100671.78;4992782;28;20034;-47
2023/12/29 00:07:15;;;;;;;15.77;3.35;;;;;;;13.10;79.73;100668.31;4993595;28;20048;-48
2023/12/29 00:09:41;;;;;;;17.60;3.30;;;;;;;12.66;80.57;100672.63;4993226;28;20428;-49
2023/12/29 00:12:07;;;;;;;14.98;3.13;;;;;;;12.80;80.93;100686.59;4992110;28;20027;-48
2023/12/29 00:14:33;;;;;;;18.77;3.40;;;;;;;12.62;80.52;100686.56;4992376;28;20121;-45
2023/12/29 00:16:58;;;;;;;21.17;3.00;;;;;;;12.93;79.45;100689.22;4973844;28;20026;-43
2023/12/29 00:19:23;;;;;;;19.50;3.00;;;;;;;13.14;78.99;100677.03;4993243;28;20056;-48
2023/12/29 00:21:49;;;;;;;18.98;2.88;;;;;;;13.07;78.89;100676.13;4991821;28;20093;-46
2023/12/29 00:24:14;;;;;;;11.88;2.95;;;;;;;13.02;79.29;100678.75;4991342;28;20105;-42
2023/12/29 00:26:39;;;;;;;16.17;3.03;;;;;;;12.98;78.83;100668.31;4992581;28;20035;-45
2023/12/29 00:29:06;;;;;;;17.02;2.75;;;;;;;12.83;78.69;100676.13;4991746;28;20439;-44
2023/12/29 00:31:31;;;;;;;14.55;2.90;;;;;;;13.24;77.99;100658.72;4992872;28;20034;-45
2023/12/29 00:33:57;;;;;;;24.30;3.30;;;;;;;13.20;77.21;100650.88;4991024;28;20043;-44
2023/12/29 00:36:23;;;;;;;17.75;3.10;;;;;;;12.96;78.74;100660.44;4992899;28;20042;-48
2023/12/29 00:38:48;;;;;;;13.50;2.72;;;;;;;13.01;78.85;100663.94;4974786;28;20034;-45
2023/12/29 00:41:13;;;;;;;21.58;3.15;;;;;;;13.24;76.88;100668.31;4991743;28;20040;-45
2023/12/29 00:43:39;;;;;;;14.70;2.83;;;;;;;13.38;77.38;100679.66;4990698;28;20455;-46
2023/12/29 00:46:05;;;;;;;17.63;2.90;;;;;;;13.16;78.20;100670.94;4991585;28;20385;-43
2023/12/29 00:48:31;;;;;;;11.48;2.38;;;;;;;13.12;78.11;100658.72;4993110;28;20101;-43
2023/12/29 00:50:56;;;;;;;11.48;2.60;;;;;;;12.90;78.63;100657.81;4991055;28;20562;-44
2023/12/29 00:53:22;;;;;;;16.08;2.75;;;;;;;13.51;76.99;100663.03;4991975;28;20033;-44
2023/12/29 00:55:47;;;;;;;16.67;2.58;;;;;;;13.27;78.18;100666.56;4991962;28;20034;-44
2023/12/29 00:58:13;;;;;;;13.95;2.97;;;;;;;12.99;79.12;100665.66;4993339;28;20043;-44
2023/12/29 01:00:38;;;;;;;15.95;2.55;;;;;;;13.15;78.40;100661.34;4992324;28;20057;-44
2023/12/29 01:03:04;;;;;;;11.80;2.47;;;;;;;13.30;77.91;100663.94;4992316;28;20109;-44
2023/12/29 01:05:29;;;;;;;14.07;2.67;;;;;;;13.53;77.42;100656.06;4992841;28;20038;-47
2023/12/29 01:07:55;;;;;;;13.57;2.60;;;;;;;13.23;78.06;100657.00;4990718;28;20077;-43
2023/12/29 01:10:20;;;;;;;13.13;3.08;;;;;;;12.88;78.24;100653.44;4991584;28;20042;-47
2023/12/29 01:12:46;;;;;;;13.57;2.67;;;;;;;13.30;77.19;100657.81;4992317;28;20066;-44
2023/12/29 01:15:11;;;;;;;14.10;2.60;;;;;;;13.13;78.72;100634.28;4991186;28;20045;-44
2023/12/29 01:17:36;;;;;;;15.57;3.00;;;;;;;13.48;76.81;100631.59;4993162;28;20042;-44
2023/12/29 01:20:04;;;;;;;12.88;2.83;;;;;;;13.42;77.01;100654.34;4990670;28;20458;-44
2023/12/29 01:22:29;;;;;;;15.40;2.75;;;;;;;13.14;77.97;100656.97;4991479;28;20084;-44
2023/12/29 01:24:55;;;;;;;17.40;3.22;;;;;;;13.22;77.91;100667.44;4974985;28;20034;-44
2023/12/29 01:27:20;;;;;;;16.35;2.75;;;;;;;13.67;76.50;100662.13;4993258;28;20125;-44
2023/12/29 01:29:46;;;;;;;15.18;2.95;;;;;;;13.26;76.89;100658.72;4993137;28;20521;-43
2023/12/29 01:32:11;;;;;;;16.67;3.10;;;;;;;13.48;76.71;100649.09;4994234;28;20092;-43
2023/12/29 01:34:36;;;;;;;14.82;2.95;;;;;;;13.68;75.85;100648.16;4993872;28;20065;-44
2023/12/29 01:37:05;;;;;;;16.33;3.05;;;;;;;13.29;76.46;100648.25;4998221;28;20031;-45
2023/12/29 01:39:30;;;;;;;18.25;3.00;;;;;;;13.74;75.29;100637.66;5006616;28;20050;-45
2023/12/29 01:41:56;;;;;;;13.00;2.88;;;;;;;13.42;76.44;100657.81;5003990;28;20100;-48
2023/12/29 01:44:22;;;;;;;20.10;4.00;;;;;;;13.73;76.03;100646.38;4995450;28;20429;-51
2023/12/29 01:46:51;;;;;;;16.48;3.33;;;;;;;13.61;75.09;100643.81;4991791;28;20049;-44
2023/12/29 01:49:18;;;;;;;17.23;3.50;;;;;;;13.35;76.60;100649.13;4991854;28;20045;-44
2023/12/29 01:51:44;;;;;;;15.13;3.15;;;;;;;13.24;76.98;100656.09;4989912;28;20061;-45
2023/12/29 01:54:11;;;;;;;15.07;2.60;;;;;;;13.27;77.43;100656.09;4989827;28;20223;-48
2023/12/29 01:56:37;;;;;;;18.73;3.10;;;;;;;13.37;76.66;100656.94;4991051;28;20030;-44
2023/12/29 01:59:03;;;;;;;15.27;3.13;;;;;;;13.33;77.67;100663.94;4989564;28;20489;-45
2023/12/29 02:01:29;;;;;;;15.60;3.30;;;;;;;13.56;76.16;100653.44;4989990;28;20034;-45
2023/12/29 02:03:56;;;;;;;15.82;2.58;;;;;;;13.70;75.98;100656.91;4989229;28;20370;-46
2023/12/29 02:06:21;;;;;;;16.00;2.97;;;;;;;13.46;77.07;100664.81;4990969;28;20034;-44
2023/12/29 02:08:47;;;;;;;13.55;2.92;;;;;;;13.67;75.47;100656.00;4990905;28;20037;-49
2023/12/29 02:11:13;;;;;;;12.18;2.75;;;;;;;13.64;76.10;100675.25;4991215;28;20052;-47
2023/12/29 02:13:39;;;;;;;20.23;3.05;;;;;;;13.24;77.05;100676.16;4988970;28;20045;-45
2023/12/29 02:16:11;;;;;;;13.27;2.58;;;;;;;13.41;76.86;100677.03;4990801;28;20038;-44
2023/12/29 02:18:38;;;;;;;15.10;2.63;;;;;;;13.66;75.83;100670.00;4990989;28;20038;-45
2023/12/29 02:21:04;;;;;;;11.15;2.67;;;;;;;13.73;74.93;100672.59;4989416;28;20027;-44
2023/12/29 02:23:29;;;;;;;15.63;2.80;;;;;;;13.70;75.43;100672.63;4986916;28;20392;-46
2023/12/29 02:26:01;;;;;;;16.13;3.53;;;;;;;13.82;74.61;100674.31;4989892;28;20026;-44
2023/12/29 02:28:27;;;;;;;14.95;2.85;;;;;;;13.53;76.39;100673.53;4989777;28;20488;-46
2023/12/29 02:31:06;;;;;;;17.80;2.75;;;;;;;13.92;74.99;100664.66;4990840;28;20038;-44
2023/12/29 02:33:36;;;;;;;16.10;2.97;;;;;;;13.49;76.54;100674.38;4990560;28;20440;-44
2023/12/29 02:36:03;;;;;;;17.98;2.92;;;;;;;13.37;77.58;100670.91;4989937;28;20030;-48
2023/12/29 02:38:29;;;;;;;18.90;3.33;;;;;;;13.58;76.06;100675.25;4989271;28;20038;-44
2023/12/29 02:40:58;;;;;;;19.30;3.20;;;;;;;13.70;75.87;100662.13;4990527;28;20515;-45
2023/12/29 02:43:23;;;;;;;17.52;3.20;;;;;;;13.29;77.86;100672.69;4989498;28;20416;-49
2023/12/29 02:45:49;;;;;;;24.13;3.75;;;;;;;13.91;75.29;100669.03;4972741;28;20118;-44
2023/12/29 02:48:14;;;;;;;23.17;3.20;;;;;;;13.39;77.19;100678.78;4990840;28;20034;-46
2023/12/29 02:50:40;;;;;;;24.30;2.97;;;;;;;13.41;76.99;100684.91;4990477;28;20038;-46
2023/12/29 02:53:05;;;;;;;26.15;4.00;;;;;;;13.37;76.69;100689.25;4990170;28;20053;-44
2023/12/29 02:55:31;;;;;;;31.83;3.88;;;;;;;13.46;77.18;100688.38;4989491;28;20053;-43
2023/12/29 02:57:56;;;;;;;29.58;3.75;;;;;;;13.27;76.69;100681.41;4990359;28;20033;-44
2023/12/29 03:00:21;;;;;;;26.55;3.83;;;;;;;13.61;75.79;100688.34;4991918;28;20034;-43
2023/12/29 03:02:47;;;;;;;29.33;3.63;;;;;;;13.62;75.05;100687.47;4990200;28;20489;-43
2023/12/29 03:05:12;;;;;;;32.92;4.03;;;;;;;13.52;75.50;100677.00;4990969;28;20493;-46
2023/12/29 03:07:39;;;;;;;34.88;4.43;;;;;;;13.66;74.82;100681.34;4989131;28;20030;-44
2023/12/29 03:10:05;;;;;;;43.30;4.45;;;;;;;13.53;75.90;100663.94;4989127;28;20038;-43
2023/12/29 03:12:31;;;;;;;35.88;4.40;;;;;;;13.71;75.01;100663.88;4989996;28;20566;-45
2023/12/29 03:14:56;;;;;;;34.55;4.13;;;;;;;13.85;73.62;100662.94;4989467;28;20030;-44
2023/12/29 03:17:21;;;;;;;34.33;4.47;;;;;;;13.84;73.93;100658.59;4990031;28;20504;-44
2023/12/29 03:19:47;;;;;;;41.00;4.82;;;;;;;13.86;72.41;100654.22;4988657;28;20034;-46
2023/12/29 03:22:12;;;;;;;28.95;3.95;;;;;;;13.53;70.83;100663.94;4988949;28;20034;-44
2023/12/29 03:24:40;;;;;;;23.63;3.50;;;;;;;13.48;68.06;100665.66;4989231;28;20039;-44
2023/12/29 03:27:05;;;;;;;28.17;4.22;;;;;;;13.70;67.37;100646.41;4972451;28;20497;-45
2023/12/29 03:29:31;;;;;;;26.38;3.90;;;;;;;14.27;65.63;100638.31;4988877;28;20066;-44
2023/12/29 03:31:56;;;;;;;24.17;3.53;;;;;;;14.30;64.70;100638.28;4989780;28;20038;-47
2023/12/29 03:34:21;;;;;;;32.45;3.50;;;;;;;14.21;65.30;100647.06;4988257;28;20031;-48
2023/12/29 03:36:47;;;;;;;31.92;3.67;;;;;;;14.00;67.89;100641.94;4988989;28;20050;-46
2023/12/29 03:39:12;;;;;;;33.40;4.13;;;;;;;13.62;71.48;100652.53;4989861;28;20030;-46
2023/12/29 03:41:38;;;;;;;32.30;3.90;;;;;;;13.49;74.29;100667.41;4989744;28;20061;-46
2023/12/29 03:44:03;;;;;;;27.98;3.97;;;;;;;13.55;75.15;100632.47;4988608;28;20038;-44
2023/12/29 03:46:29;;;;;;;37.65;4.88;;;;;;;13.04;77.22;100660.44;4972166;28;20169;-50
2023/12/29 03:48:54;;;;;;;31.27;4.15;;;;;;;13.38;77.69;100635.13;4988085;28;20034;-45
2023/12/29 03:51:20;;;;;;;42.55;4.13;;;;;;;13.32;78.47;100650.84;4989054;28;20057;-44
2023/12/29 03:53:45;;;;;;;34.63;4.55;;;;;;;13.28;78.84;100655.22;4989898;28;20049;-43
2023/12/29 03:56:18;;;;;;;29.20;4.03;;;;;;;12.83;79.43;100634.25;4990284;28;20117;-44
2023/12/29 03:58:45;;;;;;;35.78;4.15;;;;;;;13.46;77.15;100630.75;4988365;28;20037;-44
2023/12/29 04:01:11;;;;;;;34.03;4.45;;;;;;;13.32;76.30;100632.53;4988812;28;20039;-44
2023/12/29 04:03:37;;;;;;;33.72;4.32;;;;;;;12.89;76.35;100631.66;4989409;28;20043;-46
2023/12/29 04:06:02;;;;;;;36.00;4.32;;;;;;;13.24;75.44;100645.63;4989063;28;20608;-44
2023/12/29 04:08:28;;;;;;;32.00;4.28;;;;;;;13.16;75.30;100641.28;4989576;28;20034;-43
2023/12/29 04:10:53;;;;;;;27.10;4.38;;;;;;;13.43;74.73;100638.59;4988054;28;20078;-46
2023/12/29 04:13:18;;;;;;;30.15;4.20;;;;;;;13.30;73.69;100643.00;4988580;28;20137;-47
2023/12/29 04:15:44;;;;;;;39.95;3.90;;;;;;;13.33;74.29;100643.00;4986668;28;20112;-45
2023/12/29 04:18:09;;;;;;;36.13;4.28;;;;;;;13.23;74.75;100648.25;4972010;28;20058;-43
2023/12/29 04:20:34;;;;;;;35.10;4.78;;;;;;;13.16;74.43;100657.88;4989653;28;20040;-47
2023/12/29 04:23:00;;;;;;;36.47;4.32;;;;;;;13.48;73.55;100649.94;4988765;28;20117;-43
2023/12/29 04:25:25;;;;;;;35.10;3.75;;;;;;;13.68;73.08;100640.28;4987999;28;20081;-43
2023/12/29 04:27:50;;;;;;;32.72;4.13;;;;;;;13.39;73.48;100647.34;4992039;28;20480;-43
2023/12/29 04:30:16;;;;;;;31.48;3.90;;;;;;;13.32;73.27;100641.25;4993105;28;20108;-48
2023/12/29 04:32:41;;;;;;;30.23;4.40;;;;;;;13.32;72.91;100656.09;4991177;28;20046;-45
2023/12/29 04:35:07;;;;;;;30.17;3.72;;;;;;;13.87;71.85;100629.75;4993383;28;20033;-45
2023/12/29 04:37:32;;;;;;;34.88;4.93;;;;;;;13.40;72.43;100649.97;4992036;28;20045;-45
2023/12/29 04:39:57;;;;;;;31.10;4.70;;;;;;;13.23;72.71;100624.69;4993844;28;20493;-47
2023/12/29 04:42:23;;;;;;;34.70;5.50;;;;;;;13.86;71.06;100615.78;4996313;28;20041;-48
2023/12/29 04:44:48;;;;;;;33.75;4.20;;;;;;;13.51;71.74;100631.63;4999492;28;20042;-46
2023/12/29 04:47:13;;;;;;;26.20;3.72;;;;;;;13.48;71.79;100626.38;4994086;28;20037;-45
2023/12/29 04:49:39;;;;;;;33.60;4.43;;;;;;;13.72;70.98;100618.44;4992174;28;20064;-45
2023/12/29 04:52:04;;;;;;;28.27;4.32;;;;;;;13.40;71.96;100625.53;4992823;28;20076;-45
2023/12/29 04:54:30;;;;;;;30.25;3.60;;;;;;;13.33;72.10;100632.53;4992632;28;20034;-43
2023/12/29 04:56:55;;;;;;;38.35;4.28;;;;;;;13.66;71.11;100621.06;4991975;28;20041;-46
2023/12/29 04:59:21;;;;;;;38.72;4.57;;;;;;;13.47;71.92;100644.72;4975500;28;20042;-43
2023/12/29 05:01:46;;;;;;;38.50;4.32;;;;;;;13.44;71.63;100655.19;4992091;28;20034;-45
2023/12/29 05:04:11;;;;;;;33.72;4.55;;;;;;;13.12;72.60;100665.66;4991046;28;20532;-45
2023/12/29 05:06:37;;;;;;;33.67;4.63;;;;;;;13.77;71.50;100639.41;4991072;28;20038;-42
2023/12/29 05:09:02;;;;;;;32.42;4.32;;;;;;;13.54;72.87;100641.22;4992710;28;20117;-44
2023/12/29 05:11:28;;;;;;;34.67;4.47;;;;;;;13.56;72.02;100657.78;4992754;28;20038;-50
2023/12/29 05:13:53;;;;;;;34.30;4.30;;;;;;;13.82;71.38;100649.00;4991540;28;20397;-44
2023/12/29 05:16:18;;;;;;;35.60;4.38;;;;;;;13.66;72.77;100639.41;4990433;28;20396;-44
2023/12/29 05:18:44;;;;;;;35.58;4.13;;;;;;;14.00;71.46;100615.72;4973995;28;20038;-44
2023/12/29 05:21:19;;;;;;;39.35;4.68;;;;;;;13.52;72.78;100622.88;4992191;28;20416;-44
2023/12/29 05:23:45;;;;;;;28.98;3.75;;;;;;;13.81;72.06;100628.91;4989963;28;20096;-49
2023/12/29 05:26:11;;;;;;;34.15;4.00;;;;;;;13.61;72.91;100630.72;4990382;28;20030;-44
2023/12/29 05:28:37;;;;;;;34.38;3.80;;;;;;;13.71;72.82;100626.31;4990409;28;20515;-44
2023/12/29 05:31:05;;;;;;;34.85;3.88;;;;;;;13.81;71.94;100625.41;4989782;28;20034;-43
2023/12/29 05:33:31;;;;;;;26.48;3.65;;;;;;;13.80;71.83;100635.00;4991815;28;20133;-44
2023/12/29 05:35:57;;;;;;;29.42;3.78;;;;;;;13.84;71.95;100628.03;4991287;28;20035;-48
2023/12/29 05:38:22;;;;;;;37.45;4.28;;;;;;;14.13;71.57;100607.81;4991391;28;20035;-44
2023/12/29 05:40:47;;;;;;;30.77;3.85;;;;;;;14.12;71.81;100613.91;4989956;28;20125;-45
2023/12/29 05:43:14;;;;;;;33.67;4.22;;;;;;;14.05;71.81;100627.94;4991286;28;20092;-46
2023/12/29 05:45:39;;;;;;;28.67;3.67;;;;;;;13.97;72.30;100626.19;4973222;28;20042;-43
2023/12/29 05:48:05;;;;;;;31.10;3.92;;;;;;;14.22;71.12;100623.47;4990107;28;20030;-44
2023/12/29 05:50:31;;;;;;;32.42;4.07;;;;;;;14.26;70.53;100603.34;4991782;28;20065;-45
2023/12/29 05:52:56;;;;;;;31.00;3.08;;;;;;;14.18;70.67;100613.88;4989414;28;20493;-42
2023/12/29 05:55:21;;;;;;;28.65;3.78;;;;;;;14.06;71.15;100619.19;4990215;28;20038;-44
2023/12/29 05:57:47;;;;;;;22.80;3.47;;;;;;;14.12;70.66;100616.53;4990998;28;20033;-45
2023/12/29 06:00:14;;;;;;;25.60;3.50;;;;;;;14.26;70.31;100612.97;4990902;28;20054;-45
2023/12/29 06:02:43;;;;;;;19.60;2.45;;;;;;;14.16;70.64;100612.13;4990562;28;20396;-43
2023/12/29 06:05:12;;;;;;;27.42;3.17;;;;;;;13.95;70.98;100614.88;4991040;28;20034;-45
2023/12/29 06:07:37;;;;;;;20.17;2.70;;;;;;;13.69;72.28;100599.25;4991454;28;20042;-43
2023/12/29 06:10:03;;;;;;;19.33;2.72;;;;;;;14.28;70.13;100596.34;4973501;28;20366;-48
2023/12/29 06:12:29;;;;;;;23.55;2.72;;;;;;;14.12;70.27;100592.94;4991373;28;20042;-48
2023/12/29 06:14:54;;;;;;;23.05;3.03;;;;;;;13.90;72.11;100599.19;4989634;28;20062;-45
2023/12/29 06:17:19;;;;;;;23.33;3.40;;;;;;;13.73;71.46;100599.22;4990934;28;20448;-45
2023/12/29 06:19:45;;;;;;;24.27;3.17;;;;;;;14.21;70.52;100597.25;4989211;28;20105;-44
2023/12/29 06:22:11;;;;;;;26.45;3.85;;;;;;;13.99;71.76;100587.75;4989850;28;20128;-45
2023/12/29 06:24:40;;;;;;;18.08;2.63;;;;;;;14.22;70.56;100570.16;4990447;28;20376;-46
2023/12/29 06:27:08;;;;;;;21.73;2.70;;;;;;;14.28;71.01;100579.72;4989091;28;20084;-46
2023/12/29 06:29:33;;;;;;;25.90;2.90;;;;;;;14.17;71.33;100583.28;4991112;28;20065;-44
2023/12/29 06:31:59;;;;;;;20.63;3.30;;;;;;;14.25;70.88;100585.00;4990400;28;20473;-45
2023/12/29 06:34:25;;;;;;;17.35;2.50;;;;;;;14.10;71.47;100593.81;4990643;28;20053;-44
2023/12/29 06:36:50;;;;;;;24.08;2.83;;;;;;;13.96;71.82;100599.16;4972826;28;20038;-44
2023/12/29 06:39:16;;;;;;;24.48;2.80;;;;;;;13.80;72.64;100598.34;4990695;28;20525;-49
2023/12/29 06:41:41;;;;;;;18.90;2.58;;;;;;;13.47;74.46;100608.06;4988889;28;20038;-44
2023/12/29 06:44:06;;;;;;;20.45;2.90;;;;;;;13.76;73.34;100599.22;4990649;28;20041;-44
2023/12/29 06:46:32;;;;;;;18.48;2.47;;;;;;;14.00;73.00;100605.25;4991109;28;20117;-43
2023/12/29 06:48:57;;;;;;;19.30;2.58;;;;;;;14.12;72.50;100613.03;4989988;28;20040;-43
2023/12/29 06:51:23;;;;;;;18.00;2.78;;;;;;;13.69;73.24;100612.34;4991284;28;20066;-46
2023/12/29 06:53:49;;;;;;;20.00;2.50;;;;;;;13.62;73.84;100605.38;4990696;28;20105;-43
2023/12/29 06:56:15;;;;;;;16.80;2.30;;;;;;;13.78;73.52;100605.31;4991048;28;20098;-44
2023/12/29 06:58:41;;;;;;;18.20;2.45;;;;;;;13.52;74.99;100607.19;4990260;28;20037;-43
2023/12/29 07:01:07;;;;;;;14.65;2.53;;;;;;;13.69;73.99;100608.00;4991175;28;20436;-43
2023/12/29 07:03:32;;;;;;;14.98;2.15;;;;;;;13.66;74.33;100601.91;4973309;28;20038;-47
2023/12/29 07:06:01;;;;;;;20.20;3.15;;;;;;;13.82;74.17;100609.69;4988726;28;20058;-47
2023/12/29 07:08:28;;;;;;;14.23;2.40;;;;;;;13.73;74.27;100614.94;4973449;28;20053;-47
2023/12/29 07:10:53;;;;;;;16.25;2.47;;;;;;;13.94;74.06;100615.75;4990678;28;20026;-43
2023/12/29 07:13:19;;;;;;;18.75;2.30;;;;;;;13.74;74.84;100610.59;4990955;28;20054;-47
2023/12/29 07:15:45;;;;;;;13.55;2.38;;;;;;;13.97;74.06;100603.50;4990297;28;20038;-43
2023/12/29 07:18:11;;;;;;;20.95;2.58;;;;;;;13.79;74.42;100598.31;5004380;22;20046;-44
2023/12/29 07:20:36;;;;;;;19.33;3.08;;;;;;;13.88;74.44;100600.94;4989852;28;20040;-45
2023/12/29 07:23:02;;;;;;;15.13;2.83;;;;;;;13.75;75.50;100592.25;4989816;28;20026;-46
2023/12/29 07:25:27;;;;;;;14.48;2.78;;;;;;;13.99;74.53;100582.53;4989654;28;20034;-50
2023/12/29 07:27:53;;;;;;;15.20;2.90;;;;;;;14.36;72.72;100585.81;4990423;28;20039;-47
2023/12/29 07:30:18;;;;;;;17.45;2.63;;;;;;;13.95;74.41;100596.53;4991133;28;20038;-43
2023/12/29 07:32:44;;;;;;;17.88;2.78;;;;;;;14.54;72.39;100606.69;4990263;28;20254;-47
2023/12/29 07:35:09;;;;;;;15.73;2.60;;;;;;;13.75;75.05;100594.88;4991693;28;20026;-45
2023/12/29 07:37:35;;;;;;;15.20;2.47;;;;;;;13.91;75.07;100610.50;4991762;28;20256;-44
2023/12/29 07:40:00;;;;;;;11.80;2.15;;;;;;;14.15;73.75;100610.38;4990685;28;20066;-46
2023/12/29 07:42:26;;;;;;;16.45;2.50;;;;;;;14.38;72.74;100603.31;4992158;28;20137;-43
2023/12/29 07:44:51;;;;;;;16.85;3.10;;;;;;;14.05;74.06;100603.47;4990450;28;20061;-43
2023/12/29 07:47:17;;;;;;;11.68;2.00;;;;;;;14.07;74.28;100596.47;4990862;28;20067;-43
2023/12/29 07:49:42;;;;;;;12.73;2.10;;;;;;;13.45;75.50;100604.56;4991539;28;20026;-49
2023/12/29 07:52:08;;;;;;;11.98;2.17;;;;;;;13.39;76.44;100602.84;4992408;28;20022;-44
2023/12/29 07:54:33;;;;;;;13.95;2.10;;;;;;;13.81;73.88;100600.09;4993383;28;20034;-45
2023/12/29 07:56:58;;;;;;;11.80;2.20;;;;;;;14.19;73.38;100599.91;4994499;28;20057;-48
2023/12/29 07:59:24;;;;;;;12.73;2.30;;;;;;;13.82;74.35;100614.06;4994776;28;20606;-43
2023/12/29 08:01:50;;;;;;;13.43;2.38;;;;;;;13.92;74.78;100607.88;4996779;28;20093;-44
2023/12/29 08:04:15;;;;;;;11.32;2.42;;;;;;;14.19;73.35;100606.88;4997237;28;20085;-45
2023/12/29 08:06:41;;;;;;;11.95;1.90;;;;;;;13.84;74.25;100614.94;4995117;28;20034;-49
2023/12/29 08:09:07;;;;;;;9.43;1.83;;;;;;;13.86;73.51;100620.16;4994550;28;20505;-45
2023/12/29 08:11:32;;;;;;;8.98;1.83;;;;;;;14.34;72.16;100611.16;4994244;28;20089;-44
2023/12/29 08:13:58;;;;;;;10.38;1.83;;;;;;;13.84;73.13;100625.41;4993547;28;20472;-48
2023/12/29 08:16:23;;;;;;;10.02;1.70;;;;;;;14.15;72.61;100615.63;4992244;28;20030;-47
2023/12/29 08:18:49;;;;;;;9.93;1.90;;;;;;;13.94;73.59;100628.84;4992188;28;20677;-45
2023/12/29 08:21:20;;;;;;;11.25;1.88;;;;;;;13.92;74.25;100621.00;4993236;28;20041;-47
2023/12/29 08:23:47;;;;;;;8.77;1.83;;;;;;;13.74;74.20;100639.41;4993341;28;20026;-49
2023/12/29 08:26:13;;;;;;;9.30;1.80;;;;;;;13.88;73.54;100632.38;4992049;28;20105;-45
2023/12/29 08:28:39;;;;;;;10.40;1.80;;;;;;;14.35;72.06;100629.50;4993335;28;20459;-44
2023/12/29 08:31:05;;;;;;;9.25;1.80;;;;;;;13.77;74.54;100629.81;4993875;28;20156;-49
2023/12/29 08:33:30;;;;;;;8.07;1.65;;;;;;;13.63;74.70;100651.66;4993780;28;20076;-46
2023/12/29 08:36:00;;;;;;;9.60;1.75;;;;;;;13.98;74.45;100641.94;4990884;28;20038;-44
2023/12/29 08:38:26;;;;;;;9.18;1.70;;;;;;;13.99;74.78;100646.31;4993709;28;20045;-45
2023/12/29 08:40:52;;;;;;;7.90;1.70;;;;;;;14.12;73.98;100640.13;4991683;28;20034;-47
2023/12/29 08:43:21;;;;;;;8.65;1.45;;;;;;;13.74;75.72;100635.03;4993312;28;20038;-46
2023/12/29 08:45:49;;;;;;;11.70;1.67;;;;;;;14.10;74.56;100648.88;4992819;28;20030;-44
2023/12/29 08:48:15;;;;;;;9.52;1.65;;;;;;;13.79;75.51;100642.88;4991825;28;20428;-45
2023/12/29 08:50:41;;;;;;;10.15;1.60;;;;;;;14.01;74.51;100651.53;4993190;28;20495;-47
2023/12/29 08:53:06;;;;;;;11.07;1.88;;;;;;;14.11;73.40;100648.00;4993609;28;20389;-49
2023/12/29 08:55:32;;;;;;;10.30;1.73;;;;;;;13.98;73.68;100656.78;4994227;28;20349;-47
2023/12/29 08:57:57;;;;;;;7.97;1.60;;;;;;;13.79;74.87;100649.00;4993590;28;20222;-48
2023/12/29 09:00:23;;;;;;;11.07;1.70;;;;;;;14.34;72.57;100648.75;4992773;28;20066;-47
2023/12/29 09:02:48;;;;;;;15.30;5.72;;;;;;;13.93;73.82;100666.41;4992739;28;20366;-45
2023/12/29 09:05:14;;;;;;;11.65;2.03;;;;;;;14.12;73.96;100658.47;4991921;28;20124;-44
2023/12/29 09:07:39;;;;;;;12.65;1.73;;;;;;;14.09;74.06;100657.59;4991461;28;20035;-46
2023/12/29 09:10:07;;;;;;;18.25;5.05;;;;;;;13.91;74.31;100661.16;4993434;28;20030;-45
2023/12/29 09:12:36;;;;;;;10.27;2.25;;;;;;;14.08;73.66;100666.38;4991828;28;20484;-46
2023/12/29 09:15:02;;;;;;;9.10;1.77;;;;;;;14.07;73.79;100662.00;4991493;28;20129;-43
2023/12/29 09:17:27;;;;;;;12.45;1.75;;;;;;;13.97;74.19;100676.00;4992544;28;20121;-44
2023/12/29 09:19:53;;;;;;;8.15;1.77;;;;;;;14.40;72.88;100680.22;4990967;28;20105;-44
2023/12/29 09:22:18;;;;;;;7.53;1.63;;;;;;;14.32;73.32;100681.13;4992759;28;20424;-45
2023/12/29 09:24:43;;;;;;;6.05;1.73;;;;;;;14.42;72.34;100677.59;4992277;28;20121;-43
2023/12/29 09:27:08;;;;;;;10.88;2.05;;;;;;;14.48;72.17;100675.81;4993089;28;20421;-46
2023/12/29 09:29:34;;;;;;;9.00;2.05;;;;;;;14.09;73.61;100674.22;4992713;28;20088;-46
2023/12/29 09:31:59;;;;;;;8.73;1.90;;;;;;;14.70;72.04;100660.78;4991954;28;20120;-46
2023/12/29 09:34:24;;;;;;;13.43;1.77;;;;;;;14.61;72.27;100663.50;4992138;28;20064;-51
2023/12/29 09:36:50;;;;;;;15.25;1.88;;;;;;;14.34;72.81;100676.72;4992398;28;20092;-46
2023/12/29 09:39:16;;;;;;;16.85;2.10;;;;;;;14.20;73.65;100690.78;4993046;28;20023;-45
2023/12/29 09:41:45;;;;;;;12.15;2.00;;;;;;;14.82;71.80;100691.34;4991141;28;20039;-47
2023/12/29 09:44:13;;;;;;;10.63;1.85;;;;;;;14.21;72.72;100689.00;4992105;28;20137;-46
2023/12/29 09:46:42;;;;;;;14.68;2.20;;;;;;;14.34;72.61;100697.69;4991589;28;20041;-47
2023/12/29 09:49:08;;;;;;;14.02;2.13;;;;;;;14.30;73.28;100702.09;4992086;28;20041;-48
2023/12/29 09:51:34;;;;;;;12.73;2.30;;;;;;;14.77;71.20;100703.59;4991907;28;20081;-45
2023/12/29 09:54:00;;;;;;;8.90;1.95;;;;;;;14.33;73.66;100711.72;4990282;28;20037;-43
2023/12/29 09:56:26;;;;;;;12.00;2.03;;;;;;;14.43;73.09;100706.44;4991931;28;20049;-44
2023/12/29 09:58:53;;;;;;;14.55;2.40;;;;;;;14.16;73.32;100717.00;4991870;28;20042;-51
2023/12/29 10:01:21;;;;;;;20.52;2.30;;;;;;;14.52;72.37;100709.00;4991966;28;20080;-49
2023/12/29 10:03:48;;;;;;;14.10;2.03;;;;;;;14.49;72.01;100713.41;4991082;28;20042;-45
2023/12/29 10:06:19;;;;;;;12.52;1.98;;;;;;;14.65;72.06;100707.19;4991905;28;20034;-44
2023/12/29 10:08:46;;;;;;;15.43;2.13;;;;;;;14.83;71.74;100706.19;4991523;28;20042;-47
2023/12/29 10:11:13;;;;;;;11.07;2.20;;;;;;;14.80;71.10;100703.59;4991864;28;20034;-46
2023/12/29 10:13:41;;;;;;;10.40;1.55;;;;;;;14.86;71.37;100708.81;4990997;28;20049;-48
2023/12/29 10:16:13;;;;;;;18.80;2.03;;;;;;;14.77;71.66;100709.72;4991550;28;20026;-49
2023/12/29 10:18:48;;;;;;;15.70;2.05;;;;;;;14.73;70.98;100704.53;4991114;28;20042;-48
2023/12/29 10:21:23;;;;;;;14.40;2.28;;;;;;;14.33;72.78;100720.47;4991702;28;20126;-43
2023/12/29 10:24:19;;;;;;;16.85;2.10;;;;;;;14.51;72.36;100723.03;4989767;28;20413;-43
2023/12/29 10:26:45;;;;;;;13.32;2.03;;;;;;;14.59;70.70;100720.34;4990962;28;20508;-45
2023/12/29 10:29:12;;;;;;;17.35;2.28;;;;;;;14.86;70.76;100720.19;4991173;28;20097;-48
2023/12/29 10:31:37;;;;;;;22.58;2.65;;;;;;;14.31;71.32;100732.69;4991398;28;20125;-45
2023/12/29 10:34:19;;;;;;;17.80;2.50;;;;;;;15.24;68.88;100740.94;4990917;28;20146;-50
2023/12/29 10:36:49;;;;;;;22.95;2.67;;;;;;;14.47;71.39;100746.63;4990623;28;20062;-46
2023/12/29 10:39:15;;;;;;;22.40;2.92;;;;;;;14.66;70.14;100744.78;4991036;28;20496;-46
2023/12/29 10:41:40;;;;;;;21.70;2.38;;;;;;;14.54;71.28;100733.47;4991058;28;20030;-44
2023/12/29 10:44:08;;;;;;;17.80;2.70;;;;;;;14.48;70.27;100745.75;4990970;28;20134;-47
2023/12/29 10:46:34;;;;;;;18.50;2.58;;;;;;;14.98;69.51;100734.97;4990610;28;20477;-47
2023/12/29 10:49:13;;;;;;;14.38;2.70;;;;;;;14.49;70.19;100751.00;4991204;28;20045;-45
2023/12/29 10:51:39;;;;;;;21.05;3.08;;;;;;;14.48;70.87;100744.00;4990607;28;20077;-46
2023/12/29 10:54:05;;;;;;;23.27;2.92;;;;;;;14.64;69.69;100742.16;4990991;28;20053;-46
2023/12/29 10:56:34;;;;;;;19.05;2.35;;;;;;;14.67;69.47;100747.41;4990920;28;20545;-45
2023/12/29 10:59:04;;;;;;;24.15;2.60;;;;;;;14.83;69.47;100735.06;4990954;28;20089;-46
2023/12/29 11:01:31;;;;;;;20.40;2.72;;;;;;;14.54;70.12;100751.84;4990382;28;20270;-43
2023/12/29 11:04:02;;;;;;;23.23;2.65;;;;;;;14.07;72.18;100756.38;4990939;28;20093;-49
2023/12/29 11:06:29;;;;;;;21.17;2.65;;;;;;;14.12;71.68;100755.47;4991061;28;20030;-44
2023/12/29 11:08:55;;;;;;;27.05;2.85;;;;;;;14.31;70.75;100751.03;4990964;28;20030;-46
2023/12/29 11:11:21;;;;;;;24.73;2.80;;;;;;;14.16;70.78;100751.97;4991436;28;20042;-46
2023/12/29 11:13:47;;;;;;;19.83;2.95;;;;;;;14.68;69.62;100735.16;4991026;28;20034;-47